createdAt,value
2022-11-04T00:00:50.000Z,100.00
2022-11-04T00:03:16.913Z,100.00
2022-11-04T00:05:43.796Z,100.00
2022-11-04T00:08:25.592Z,100.00
2022-11-04T00:11:18.720Z,100.00
2022-11-04T00:13:46.386Z,100.00
2022-11-04T00:16:33.185Z,100.00
2022-11-04T00:19:01.529Z,100.00
2022-11-04T00:21:47.978Z,100.00
2022-11-04T00:24:34.220Z,100.00
2022-11-04T00:27:19.975Z,100.00
2022-11-04T00:29:46.936Z,100.00
2022-11-04T00:32:32.655Z,100.00
2022-11-04T00:34:59.567Z,100.00
2022-11-04T00:37:27.087Z,100.00
2022-11-04T00:39:54.016Z,100.00
2022-11-04T00:42:20.945Z,100.00
2022-11-04T00:44:47.861Z,100.00
2022-11-04T00:47:14.746Z,100.00
2022-11-04T00:49:41.626Z,100.00
2022-11-04T00:52:08.531Z,100.00
2022-11-04T00:54:35.511Z,100.00
2022-11-04T00:57:02.543Z,100.00
2022-11-04T00:59:29.556Z,100.00
2022-11-04T01:01:56.987Z,100.00
2022-11-04T01:04:24.053Z,100.00
2022-11-04T01:06:51.242Z,100.00
2022-11-04T01:09:18.504Z,100.00
2022-11-04T01:11:45.445Z,100.00
2022-11-04T01:14:12.977Z,100.00
2022-11-04T01:16:40.171Z,100.00
2022-11-04T01:19:08.279Z,100.00
2022-11-04T01:21:35.207Z,100.00
2022-11-04T01:24:02.382Z,100.00
2022-11-04T01:26:30.386Z,100.00
2022-11-04T01:28:58.532Z,100.00
2022-11-04T01:31:29.087Z,100.00
2022-11-04T01:33:56.850Z,100.00
2022-11-04T01:36:24.550Z,100.00
2022-11-04T01:38:52.155Z,100.00
2022-11-04T01:41:26.234Z,100.00
2022-11-04T01:44:23.648Z,100.00
2022-11-04T01:46:54.083Z,100.00
2022-11-04T01:49:37.888Z,100.00
2022-11-04T01:52:18.444Z,100.00
2022-11-04T01:54:48.245Z,100.00
2022-11-04T01:57:21.079Z,100.00
2022-11-04T01:59:48.012Z,100.00
2022-11-04T02:02:15.945Z,100.00
2022-11-04T02:04:44.202Z,100.00
2022-11-04T02:07:12.468Z,100.00
2022-11-04T02:09:41.386Z,100.00
2022-11-04T02:12:26.789Z,100.00
2022-11-04T02:14:55.887Z,100.00
2022-11-04T02:17:40.789Z,100.00
2022-11-04T02:20:33.597Z,100.00
2022-11-04T02:23:56.128Z,100.00
2022-11-04T02:26:33.376Z,100.00
2022-11-04T02:29:23.560Z,100.00
2022-11-04T02:32:30.767Z,100.00
2022-11-04T02:35:32.568Z,100.00
2022-11-04T02:38:27.680Z,100.00
2022-11-04T02:41:17.211Z,100.00
2022-11-04T02:44:27.253Z,100.00
2022-11-04T02:47:14.020Z,100.00
2022-11-04T02:50:03.469Z,100.00
2022-11-04T02:53:06.453Z,100.00
2022-11-04T02:55:45.771Z,100.00
2022-11-04T02:58:58.740Z,100.00
2022-11-04T03:01:32.762Z,100.00
2022-11-04T03:04:09.114Z,100.00
2022-11-04T03:06:37.885Z,100.00
2022-11-04T03:09:05.247Z,100.00
2022-11-04T03:11:32.767Z,100.00
2022-11-04T03:14:08.812Z,100.00
2022-11-04T03:16:50.917Z,100.00
2022-11-04T03:19:52.054Z,100.00
2022-11-04T03:22:27.067Z,100.00
2022-11-04T03:24:55.198Z,100.00
2022-11-04T03:27:35.573Z,100.00
2022-11-04T03:30:08.293Z,100.00
2022-11-04T03:33:04.696Z,100.00
2022-11-04T03:35:32.140Z,100.00
2022-11-04T03:37:59.525Z,100.00
2022-11-04T03:40:26.880Z,100.00
2022-11-04T03:43:03.744Z,100.00
2022-11-04T03:45:32.689Z,100.00
2022-11-04T03:48:00.188Z,100.00
2022-11-04T03:50:33.270Z,100.00
2022-11-04T03:53:00.736Z,100.00
2022-11-04T03:56:03.665Z,100.00
2022-11-04T03:58:51.542Z,100.00
2022-11-04T04:01:40.448Z,100.00
2022-11-04T04:04:29.395Z,100.00
2022-11-04T04:07:11.431Z,100.00
2022-11-04T04:10:00.704Z,100.00
2022-11-04T04:12:36.876Z,100.00
2022-11-04T04:15:20.253Z,100.00
2022-11-04T04:17:56.767Z,100.00
2022-11-04T04:20:27.333Z,100.00
2022-11-04T04:23:38.374Z,100.00
2022-11-04T04:26:26.686Z,100.00
2022-11-04T04:28:55.671Z,100.00
2022-11-04T04:31:44.683Z,100.00
2022-11-04T04:34:11.660Z,100.00
2022-11-04T04:37:22.151Z,100.00
2022-11-04T04:40:22.238Z,100.00
2022-11-04T04:43:11.530Z,100.00
2022-11-04T04:45:43.391Z,100.00
2022-11-04T04:48:13.678Z,100.00
2022-11-04T04:50:54.003Z,100.00
2022-11-04T04:53:20.877Z,100.00
2022-11-04T04:55:47.787Z,100.00
2022-11-04T04:58:14.681Z,100.00
2022-11-04T05:00:41.607Z,100.00
2022-11-04T05:03:08.914Z,100.00
2022-11-04T05:05:36.061Z,100.00
2022-11-04T05:08:08.176Z,100.00
2022-11-04T05:10:35.543Z,100.00
2022-11-04T05:13:21.491Z,100.00
2022-11-04T05:15:48.653Z,100.00
2022-11-04T05:18:15.866Z,100.00
2022-11-04T05:20:42.783Z,100.00
2022-11-04T05:23:12.111Z,100.00
2022-11-04T05:25:40.543Z,100.00
2022-11-04T05:28:08.717Z,100.00
2022-11-04T05:30:36.456Z,100.00
2022-11-04T05:33:05.111Z,100.00
2022-11-04T05:35:33.425Z,100.00
2022-11-04T05:38:00.548Z,100.00
2022-11-04T05:40:27.532Z,100.00
2022-11-04T05:42:54.439Z,100.00
2022-11-04T05:45:21.350Z,100.00
2022-11-04T05:47:48.242Z,100.00
2022-11-04T05:50:15.189Z,100.00
2022-11-04T05:52:42.074Z,100.00
2022-11-04T05:55:09.385Z,100.00
2022-11-04T05:57:38.121Z,100.00
2022-11-04T06:00:05.969Z,100.00
2022-11-04T06:02:33.048Z,100.00
2022-11-04T06:05:00.106Z,100.00
2022-11-04T06:07:27.057Z,100.00
2022-11-04T06:09:53.957Z,100.00
2022-11-04T06:12:20.846Z,100.00
2022-11-04T06:14:47.772Z,100.00
2022-11-04T06:17:17.279Z,100.00
2022-11-04T06:19:44.799Z,100.00
2022-11-04T06:22:13.387Z,100.00
2022-11-04T06:24:41.136Z,100.00
2022-11-04T06:27:09.135Z,100.00
2022-11-04T06:29:39.971Z,100.00
2022-11-04T06:32:18.383Z,100.00
2022-11-04T06:34:46.319Z,100.00
2022-11-04T06:37:13.439Z,100.00
2022-11-04T06:39:40.473Z,100.00
2022-11-04T06:42:07.366Z,100.00
2022-11-04T06:44:34.774Z,100.00
2022-11-04T06:47:01.880Z,100.00
2022-11-04T06:49:28.875Z,100.00
2022-11-04T06:51:55.900Z,100.00
2022-11-04T06:54:22.896Z,100.00
2022-11-04T06:56:50.000Z,100.00
2022-11-04T06:59:19.887Z,100.00
2022-11-04T07:01:47.663Z,100.00
2022-11-04T07:04:15.037Z,100.00
2022-11-04T07:06:44.303Z,100.00
2022-11-04T07:09:14.785Z,100.00
2022-11-04T07:11:43.693Z,100.00
2022-11-04T07:14:11.544Z,100.00
2022-11-04T07:16:38.678Z,100.00
2022-11-04T07:19:06.807Z,100.00
2022-11-04T07:21:33.725Z,100.00
2022-11-04T07:24:02.001Z,100.00
2022-11-04T07:26:28.945Z,100.00
2022-11-04T07:28:55.897Z,100.00
2022-11-04T07:31:22.787Z,100.00
2022-11-04T07:33:51.309Z,100.00
2022-11-04T07:36:18.875Z,100.00
2022-11-04T07:38:46.228Z,100.00
2022-11-04T07:41:14.147Z,100.00
2022-11-04T07:43:41.116Z,100.00
2022-11-04T07:46:14.622Z,100.00
2022-11-04T07:48:41.518Z,100.00
2022-11-04T07:51:16.241Z,100.00
2022-11-04T07:53:43.520Z,100.00
2022-11-04T07:56:12.779Z,100.00
2022-11-04T07:58:40.804Z,100.00
2022-11-04T08:01:13.351Z,100.00
2022-11-04T08:03:40.895Z,100.00
2022-11-04T08:06:11.119Z,100.00
2022-11-04T08:08:38.495Z,100.00
2022-11-04T08:11:17.045Z,100.00
2022-11-04T08:13:45.644Z,100.00
2022-11-04T08:16:16.898Z,100.00
2022-11-04T08:18:44.437Z,100.00
2022-11-04T08:21:12.653Z,100.00
2022-11-04T08:23:40.046Z,100.00
2022-11-04T08:26:18.601Z,100.00
2022-11-04T08:28:46.277Z,100.00
2022-11-04T08:31:29.124Z,100.00
2022-11-04T08:33:56.935Z,100.00
2022-11-04T08:36:34.313Z,100.00
2022-11-04T08:39:05.870Z,100.00
2022-11-04T08:41:37.626Z,100.00
2022-11-04T08:44:05.402Z,100.00
2022-11-04T08:46:39.602Z,100.00
2022-11-04T08:49:10.083Z,100.00
2022-11-04T08:51:43.651Z,100.00
2022-11-04T08:54:11.251Z,100.00
2022-11-04T08:56:39.676Z,100.00
2022-11-04T08:59:07.200Z,100.00
2022-11-04T09:01:36.460Z,100.00
2022-11-04T09:04:05.340Z,100.00
2022-11-04T09:06:36.601Z,100.00
2022-11-04T09:09:06.124Z,100.00
2022-11-04T09:11:38.216Z,100.00
2022-11-04T09:14:05.582Z,100.00
2022-11-04T09:16:34.862Z,100.00
2022-11-04T09:19:02.277Z,100.00
2022-11-04T09:21:29.303Z,100.00
2022-11-04T09:23:56.332Z,100.00
2022-11-04T09:26:24.747Z,100.00
2022-11-04T09:28:56.229Z,100.00
2022-11-04T09:31:24.553Z,100.00
2022-11-04T09:33:51.630Z,100.00
2022-11-04T09:36:18.559Z,100.00
2022-11-04T09:38:45.446Z,100.00
2022-11-04T09:41:52.680Z,100.00
2022-11-04T09:44:27.180Z,100.00
2022-11-04T09:46:59.547Z,100.00
2022-11-04T09:49:30.444Z,100.00
2022-11-04T09:51:59.765Z,100.00
2022-11-04T09:54:51.131Z,100.00
2022-11-04T09:57:19.794Z,100.00
2022-11-04T09:59:47.741Z,100.00
2022-11-04T10:02:27.950Z,100.00
2022-11-04T10:05:22.836Z,100.00
2022-11-04T10:08:24.159Z,100.00
2022-11-04T10:11:06.657Z,100.00
2022-11-04T10:13:51.605Z,100.00
2022-11-04T10:16:49.543Z,100.00
2022-11-04T10:19:42.682Z,100.00
2022-11-04T10:22:38.860Z,100.00
2022-11-04T10:25:19.501Z,100.00
2022-11-04T10:27:47.694Z,100.00
2022-11-04T10:30:22.213Z,100.00
2022-11-04T10:33:30.515Z,100.00
2022-11-04T10:36:03.197Z,100.00
2022-11-04T10:39:05.243Z,100.00
2022-11-04T10:41:39.992Z,100.00
2022-11-04T10:44:24.249Z,100.00
2022-11-04T10:47:08.864Z,100.00
2022-11-04T10:50:30.947Z,100.00
2022-11-04T10:53:26.761Z,100.00
2022-11-04T10:56:09.332Z,100.00
2022-11-04T10:58:45.494Z,100.00
2022-11-04T11:01:32.003Z,100.00
2022-11-04T11:04:00.155Z,100.00
2022-11-04T11:06:33.022Z,100.00
2022-11-04T11:09:19.688Z,100.00
2022-11-04T11:11:49.897Z,100.00
2022-11-04T11:14:18.737Z,99.25
2022-11-04T11:16:45.814Z,100.00
2022-11-04T11:19:14.225Z,91.70
2022-11-04T11:21:50.084Z,78.34
2022-11-04T11:24:21.592Z,76.64
2022-11-04T11:26:53.417Z,68.95
2022-11-04T11:29:28.758Z,70.26
2022-11-04T11:31:58.132Z,77.72
2022-11-04T11:34:30.631Z,70.68
2022-11-04T11:36:59.121Z,70.69
2022-11-04T11:39:31.792Z,74.55
2022-11-04T11:42:06.235Z,72.49
2022-11-04T11:44:48.297Z,77.27
2022-11-04T11:47:25.666Z,78.77
2022-11-04T11:50:18.698Z,83.22
2022-11-04T11:52:48.523Z,81.14
2022-11-04T11:55:27.914Z,73.19
2022-11-04T12:01:32.431Z,77.80
2022-11-04T12:10:53.724Z,87.78
2022-11-04T12:13:30.396Z,87.03
2022-11-04T12:16:28.009Z,85.42
2022-11-04T12:19:20.553Z,82.98
2022-11-04T12:22:04.971Z,89.00
2022-11-04T12:24:50.556Z,100.00
2022-11-04T12:27:40.676Z,81.60
2022-11-04T12:30:25.938Z,94.11
2022-11-04T12:33:28.674Z,83.93
2022-11-04T12:36:15.757Z,98.15
2022-11-04T12:39:14.624Z,88.42
2022-11-04T12:45:07.565Z,84.95
2022-11-04T12:47:40.055Z,100.00
2022-11-04T12:50:50.282Z,85.68
2022-11-04T12:53:38.124Z,97.44
2022-11-04T12:56:10.479Z,100.00
2022-11-04T12:59:05.988Z,98.07
2022-11-04T13:01:54.937Z,100.00
2022-11-04T13:04:39.563Z,100.00
2022-11-04T13:07:19.498Z,100.00
2022-11-04T13:10:07.215Z,100.00
2022-11-04T13:12:41.630Z,93.30
2022-11-04T13:15:25.936Z,94.91
2022-11-04T13:18:05.801Z,79.35
2022-11-04T13:20:51.088Z,86.86
2022-11-04T13:23:30.648Z,79.66
2022-11-04T13:25:58.914Z,83.92
2022-11-04T13:28:26.502Z,93.55
2022-11-04T13:31:16.139Z,91.67
2022-11-04T13:34:11.979Z,95.76
2022-11-04T13:37:33.042Z,93.05
2022-11-04T13:40:12.389Z,91.47
2022-11-04T13:43:34.527Z,76.20
2022-11-04T13:46:01.599Z,83.00
2022-11-04T13:48:32.193Z,97.78
2022-11-04T13:51:07.007Z,99.36
2022-11-04T13:53:44.623Z,92.92
2022-11-04T13:56:52.335Z,96.41
2022-11-04T13:59:31.018Z,87.21
2022-11-04T14:02:18.945Z,89.18
2022-11-04T14:04:47.580Z,94.69
2022-11-04T14:07:17.848Z,90.34
2022-11-04T14:09:44.650Z,81.06
2022-11-04T14:12:13.122Z,100.00
2022-11-04T14:14:55.684Z,83.29
2022-11-04T14:17:34.781Z,89.03
2022-11-04T14:20:29.859Z,95.89
2022-11-04T14:23:02.751Z,81.11
2022-11-04T14:25:33.875Z,88.21
2022-11-04T14:28:11.156Z,93.92
2022-11-04T14:30:57.284Z,89.50
2022-11-04T14:33:36.911Z,91.60
2022-11-04T14:36:21.880Z,99.38
2022-11-04T14:39:24.081Z,98.75
2022-11-04T14:42:01.780Z,99.61
2022-11-04T14:44:46.840Z,100.00
2022-11-04T14:47:30.849Z,98.07
2022-11-04T14:50:08.654Z,100.00
2022-11-04T14:52:43.627Z,100.00
2022-11-04T14:55:21.563Z,100.00
2022-11-04T14:57:55.070Z,93.51
2022-11-04T15:00:38.866Z,98.05
2022-11-04T15:04:04.576Z,94.34
2022-11-04T15:06:10.281Z,95.44
2022-11-04T15:08:46.860Z,95.98
2022-11-04T15:12:00.664Z,89.17
2022-11-04T15:14:27.564Z,95.36
2022-11-04T15:16:57.858Z,96.97
2022-11-04T15:19:34.199Z,88.44
2022-11-04T15:22:04.788Z,83.22
2022-11-04T15:24:32.314Z,100.00
2022-11-04T15:27:05.557Z,100.00
2022-11-04T15:29:33.280Z,100.00
2022-11-04T15:32:05.344Z,100.00
2022-11-04T15:34:33.960Z,100.00
2022-11-04T15:37:05.448Z,100.00
2022-11-04T15:39:55.486Z,100.00
2022-11-04T15:42:43.606Z,100.00
2022-11-04T15:45:22.928Z,100.00
2022-11-04T15:47:56.732Z,100.00
2022-11-04T15:50:26.226Z,100.00
2022-11-04T15:52:56.467Z,100.00
2022-11-04T15:55:27.639Z,100.00
2022-11-04T15:57:56.651Z,100.00
2022-11-04T16:00:25.799Z,100.00
2022-11-04T16:02:58.588Z,100.00
2022-11-04T16:05:33.250Z,100.00
2022-11-04T16:08:20.938Z,100.00
2022-11-04T16:10:49.075Z,100.00
2022-11-04T16:13:15.962Z,100.00
2022-11-04T16:16:23.007Z,100.00
2022-11-04T16:18:56.640Z,100.00
2022-11-04T16:21:32.031Z,100.00
2022-11-04T16:24:08.293Z,100.00
2022-11-04T16:26:44.510Z,100.00
2022-11-04T16:29:28.460Z,100.00
2022-11-04T16:32:18.906Z,100.00
2022-11-04T16:34:49.048Z,100.00
2022-11-04T16:37:16.090Z,100.00
2022-11-04T16:39:45.282Z,100.00
2022-11-04T16:42:14.463Z,100.00
2022-11-04T16:44:48.286Z,100.00
2022-11-04T16:47:15.644Z,100.00
2022-11-04T16:49:42.777Z,100.00
2022-11-04T16:52:18.098Z,100.00
2022-11-04T16:54:47.733Z,100.00
2022-11-04T16:57:15.628Z,100.00
2022-11-04T16:59:43.438Z,100.00
2022-11-04T17:02:42.935Z,100.00
2022-11-04T17:05:10.541Z,100.00
2022-11-04T17:07:52.024Z,100.00
2022-11-04T17:10:28.443Z,100.00
2022-11-04T17:12:55.870Z,100.00
2022-11-04T17:15:22.898Z,100.00
2022-11-04T17:17:50.607Z,100.00
2022-11-04T17:20:18.976Z,100.00
2022-11-04T17:22:47.254Z,100.00
2022-11-04T17:25:25.162Z,100.00
2022-11-04T17:27:52.905Z,100.00
2022-11-04T17:30:22.305Z,100.00
2022-11-04T17:32:49.568Z,100.00
2022-11-04T17:35:18.107Z,100.00
2022-11-04T17:37:45.170Z,100.00
2022-11-04T17:40:17.764Z,100.00
2022-11-04T17:43:08.560Z,100.00
2022-11-04T17:45:39.917Z,100.00
2022-11-04T17:48:08.433Z,100.00
2022-11-04T17:50:39.950Z,100.00
2022-11-04T17:53:07.225Z,100.00
2022-11-04T17:55:40.186Z,100.00
2022-11-04T17:58:07.224Z,100.00
2022-11-04T18:00:34.287Z,100.00
2022-11-04T18:03:01.277Z,100.00
2022-11-04T18:05:28.365Z,100.00
2022-11-04T18:07:56.550Z,100.00
2022-11-04T18:10:24.022Z,100.00
2022-11-04T18:12:51.053Z,100.00
2022-11-04T18:15:18.966Z,100.00
2022-11-04T18:17:46.784Z,100.00
2022-11-04T18:20:15.803Z,100.00
2022-11-04T18:22:43.819Z,100.00
2022-11-04T18:25:12.437Z,100.00
2022-11-04T18:27:39.557Z,100.00
2022-11-04T18:30:07.558Z,100.00
2022-11-04T18:32:34.742Z,100.00
2022-11-04T18:35:01.703Z,100.00
2022-11-04T18:37:29.276Z,100.00
2022-11-04T18:39:56.413Z,100.00
2022-11-04T18:42:23.517Z,100.00
2022-11-04T18:44:50.495Z,100.00
2022-11-04T18:47:17.957Z,100.00
2022-11-04T18:49:46.595Z,100.00
2022-11-04T18:52:13.870Z,100.00
2022-11-04T18:54:43.711Z,100.00
2022-11-04T18:57:11.963Z,100.00
2022-11-04T18:59:39.015Z,100.00
2022-11-04T19:02:07.109Z,100.00
2022-11-04T19:04:34.291Z,100.00
2022-11-04T19:07:01.698Z,100.00
2022-11-04T19:12:49.196Z,100.00
2022-11-04T19:15:16.326Z,100.00
2022-11-04T19:17:43.465Z,100.00
2022-11-04T19:20:12.874Z,100.00
2022-11-04T19:22:40.758Z,100.00
2022-11-04T19:25:09.124Z,100.00
2022-11-04T19:27:36.431Z,100.00
2022-11-04T19:30:05.364Z,100.00
2022-11-04T19:32:32.521Z,100.00
2022-11-04T19:34:59.555Z,100.00
2022-11-04T19:37:27.775Z,100.00
2022-11-04T19:39:54.840Z,100.00
2022-11-04T19:42:40.847Z,100.00
2022-11-04T19:45:08.669Z,100.00
2022-11-04T19:47:35.728Z,100.00
2022-11-04T19:50:03.249Z,100.00
2022-11-04T19:52:31.262Z,100.00
2022-11-04T19:54:58.269Z,100.00
2022-11-04T19:57:25.356Z,100.00
2022-11-04T19:59:52.431Z,100.00
2022-11-04T20:02:20.486Z,100.00
2022-11-04T20:04:50.135Z,100.00
2022-11-04T20:07:17.211Z,100.00
2022-11-04T20:09:44.280Z,100.00
2022-11-04T20:12:30.362Z,100.00
2022-11-04T20:14:58.056Z,100.00
2022-11-04T20:17:25.327Z,100.00
2022-11-04T20:19:52.410Z,100.00
2022-11-04T20:22:19.445Z,100.00
2022-11-04T20:24:47.048Z,100.00
2022-11-04T20:27:15.261Z,100.00
2022-11-04T20:29:43.093Z,100.00
2022-11-04T20:32:10.346Z,100.00
2022-11-04T20:34:37.321Z,100.00
2022-11-04T20:37:04.325Z,100.00
2022-11-04T20:39:31.431Z,100.00
2022-11-04T20:41:58.469Z,100.00
2022-11-04T20:44:25.558Z,100.00
2022-11-04T20:46:52.788Z,100.00
2022-11-04T20:49:20.175Z,100.00
2022-11-04T20:51:54.711Z,100.00
2022-11-04T20:54:22.410Z,100.00
2022-11-04T20:56:49.390Z,100.00
2022-11-04T20:59:18.381Z,100.00
2022-11-04T21:01:47.634Z,100.00
2022-11-04T21:04:20.732Z,100.00
2022-11-04T21:06:50.459Z,100.00
2022-11-04T21:09:20.820Z,100.00
2022-11-04T21:11:49.012Z,100.00
2022-11-04T21:14:17.187Z,100.00
2022-11-04T21:16:44.247Z,100.00
2022-11-04T21:19:15.974Z,100.00
2022-11-04T21:21:44.603Z,100.00
2022-11-04T21:24:14.497Z,100.00
2022-11-04T21:26:42.510Z,100.00
2022-11-04T21:29:14.092Z,100.00
2022-11-04T21:31:42.038Z,100.00
2022-11-04T21:34:10.499Z,100.00
2022-11-04T21:36:38.044Z,100.00
2022-11-04T21:39:06.103Z,100.00
2022-11-04T21:41:33.864Z,100.00
2022-11-04T21:44:03.136Z,100.00
2022-11-04T21:46:32.416Z,100.00
2022-11-04T21:49:00.845Z,100.00
2022-11-04T21:51:32.012Z,100.00
2022-11-04T21:54:00.148Z,100.00
2022-11-04T21:56:29.681Z,100.00
2022-11-04T21:58:57.177Z,100.00
2022-11-04T22:01:27.764Z,100.00
2022-11-04T22:04:00.806Z,100.00
2022-11-04T22:06:34.804Z,100.00
2022-11-04T22:09:05.116Z,100.00
2022-11-04T22:11:36.554Z,100.00
2022-11-04T22:14:05.893Z,100.00
2022-11-04T22:16:35.598Z,100.00
2022-11-04T22:19:05.846Z,100.00
2022-11-04T22:21:33.841Z,100.00
2022-11-04T22:24:01.584Z,100.00
2022-11-04T22:26:32.612Z,100.00
2022-11-04T22:29:00.360Z,100.00
2022-11-04T22:31:37.336Z,100.00
2022-11-04T22:34:05.128Z,100.00
2022-11-04T22:36:33.842Z,100.00
2022-11-04T22:39:00.906Z,100.00
2022-11-04T22:41:32.804Z,100.00
2022-11-04T22:44:00.132Z,100.00
2022-11-04T22:46:33.069Z,100.00
2022-11-04T22:49:00.149Z,100.00
2022-11-04T22:51:27.339Z,100.00
2022-11-04T22:54:00.079Z,100.00
2022-11-04T22:56:30.515Z,100.00
2022-11-04T22:58:57.760Z,100.00
2022-11-04T23:01:26.093Z,100.00
2022-11-04T23:03:53.563Z,100.00
2022-11-04T23:06:20.708Z,100.00
2022-11-04T23:08:47.816Z,100.00
2022-11-04T23:11:38.511Z,100.00
2022-11-04T23:14:24.382Z,100.00
2022-11-04T23:17:10.921Z,100.00
2022-11-04T23:19:39.101Z,100.00
2022-11-04T23:22:26.042Z,100.00
2022-11-04T23:25:06.448Z,100.00
2022-11-04T23:27:56.851Z,100.00
2022-11-04T23:30:27.120Z,100.00
2022-11-04T23:32:58.346Z,100.00
2022-11-04T23:35:51.208Z,100.00
2022-11-04T23:38:19.010Z,100.00
2022-11-04T23:41:16.505Z,100.00
2022-11-04T23:43:43.480Z,100.00
2022-11-04T23:46:29.856Z,100.00
2022-11-04T23:49:15.791Z,100.00
2022-11-04T23:52:01.813Z,100.00
2022-11-04T23:54:47.781Z,100.00
2022-11-04T23:57:36.979Z,100.00
